createdAt,value
2023-04-22T00:04:05.043Z,98.50
2023-04-22T00:08:57.015Z,98.59
2023-04-22T00:13:48.613Z,98.69
2023-04-22T00:18:40.693Z,98.26
2023-04-22T00:23:32.522Z,98.74
2023-04-22T00:28:24.343Z,99.42
2023-04-22T00:33:15.941Z,99.54
2023-04-22T00:38:07.612Z,99.39
2023-04-22T00:43:00.414Z,99.09
2023-04-22T00:47:52.565Z,98.38
2023-04-22T00:52:44.537Z,97.97
2023-04-22T00:57:36.447Z,97.60
2023-04-22T01:02:29.484Z,97.06
2023-04-22T01:07:21.798Z,96.64
2023-04-22T01:12:13.458Z,96.22
2023-04-22T01:17:05.195Z,96.17
2023-04-22T01:21:58.093Z,95.50
2023-04-22T01:26:50.058Z,95.43
2023-04-22T01:31:41.958Z,95.54
2023-04-22T01:36:33.967Z,96.10
2023-04-22T01:41:25.798Z,95.70
2023-04-22T01:46:18.347Z,96.53
2023-04-22T01:51:09.989Z,96.08
2023-04-22T01:56:02.154Z,95.74
2023-04-22T02:00:53.990Z,96.64
2023-04-22T02:05:45.636Z,96.29
2023-04-22T02:10:37.302Z,97.03
2023-04-22T02:15:28.990Z,96.89
2023-04-22T02:20:20.623Z,97.64
2023-04-22T02:25:12.307Z,98.33
2023-04-22T02:30:04.625Z,97.56
2023-04-22T02:34:56.251Z,97.53
2023-04-22T02:39:47.838Z,97.43
2023-04-22T02:44:39.640Z,98.71
2023-04-22T02:49:31.252Z,98.61
2023-04-22T02:54:22.856Z,98.82
2023-04-22T02:59:14.650Z,99.18
2023-04-22T03:04:06.469Z,98.84
2023-04-22T03:08:58.251Z,98.52
2023-04-22T03:13:49.881Z,98.54
2023-04-22T03:18:41.615Z,98.37
2023-04-22T03:23:33.752Z,98.40
2023-04-22T03:28:25.350Z,99.08
2023-04-22T03:33:17.157Z,98.58
2023-04-22T03:38:08.898Z,98.16
2023-04-22T03:43:00.488Z,97.93
2023-04-22T03:47:52.177Z,97.94
2023-04-22T03:52:44.003Z,97.93
2023-04-22T03:57:35.913Z,97.30
2023-04-22T04:02:27.816Z,97.68
2023-04-22T04:07:19.589Z,97.95
2023-04-22T04:12:11.165Z,98.41
2023-04-22T04:17:03.692Z,98.55
2023-04-22T04:21:55.719Z,98.02
2023-04-22T04:26:47.424Z,97.83
2023-04-22T04:31:39.272Z,98.14
2023-04-22T04:36:32.891Z,97.53
2023-04-22T04:41:27.087Z,97.31
2023-04-22T04:46:20.942Z,97.35
2023-04-22T04:51:13.075Z,96.68
2023-04-22T04:56:04.970Z,96.78
2023-04-22T05:00:56.598Z,96.47
2023-04-22T05:05:49.128Z,96.65
2023-04-22T05:10:42.437Z,97.43
2023-04-22T05:15:34.334Z,96.72
2023-04-22T05:20:26.190Z,97.63
2023-04-22T05:25:18.033Z,97.49
2023-04-22T05:30:10.556Z,97.43
2023-04-22T05:35:03.092Z,97.42
2023-04-22T05:39:54.802Z,98.09
2023-04-22T05:44:46.437Z,99.34
2023-04-22T05:49:38.251Z,99.74
2023-04-22T05:54:30.069Z,99.97
2023-04-22T05:59:21.899Z,100.00
2023-04-22T06:04:13.953Z,100.00
2023-04-22T06:09:07.287Z,100.00
2023-04-22T06:13:58.937Z,97.24
2023-04-22T06:18:50.645Z,96.21
2023-04-22T06:23:43.337Z,95.53
2023-04-22T06:28:35.071Z,94.64
2023-04-22T06:33:27.004Z,92.02
2023-04-22T06:38:18.640Z,87.95
2023-04-22T06:43:10.415Z,86.85
2023-04-22T06:48:02.140Z,84.11
2023-04-22T06:52:54.555Z,81.66
2023-04-22T06:57:46.193Z,77.68
2023-04-22T07:02:37.992Z,75.13
2023-04-22T07:07:29.837Z,71.13
2023-04-22T07:12:21.511Z,69.88
2023-04-22T07:17:13.159Z,67.56
2023-04-22T07:22:05.117Z,64.86
2023-04-22T07:26:56.739Z,63.55
2023-04-22T07:31:48.501Z,62.94
2023-04-22T07:36:40.474Z,60.52
2023-04-22T07:41:32.121Z,60.36
2023-04-22T07:46:23.903Z,61.57
2023-04-22T07:51:15.600Z,58.30
2023-04-22T07:56:07.177Z,58.93
2023-04-22T08:00:58.891Z,55.75
2023-04-22T08:05:50.570Z,56.93
2023-04-22T08:10:42.263Z,59.97
2023-04-22T08:15:33.957Z,57.13
2023-04-22T08:20:26.086Z,54.87
2023-04-22T08:25:17.793Z,51.93
2023-04-22T08:30:10.049Z,51.72
2023-04-22T08:35:04.743Z,49.55
2023-04-22T08:39:57.129Z,49.52
2023-04-22T08:44:49.107Z,47.83
2023-04-22T08:49:41.147Z,47.96
2023-04-22T08:54:34.409Z,49.22
2023-04-22T08:59:26.385Z,50.20
2023-04-22T09:04:19.007Z,51.47
2023-04-22T09:09:10.748Z,55.33
2023-04-22T09:14:06.067Z,54.71
2023-04-22T09:18:58.510Z,51.60
2023-04-22T09:23:53.911Z,50.02
2023-04-22T09:28:56.569Z,47.98
2023-04-22T09:33:58.552Z,47.07
2023-04-22T09:39:02.142Z,49.19
2023-04-22T09:43:56.271Z,50.87
2023-04-22T09:48:50.505Z,50.13
2023-04-22T09:53:42.120Z,44.91
2023-04-22T09:58:39.538Z,45.88
2023-04-22T10:03:32.005Z,47.98
2023-04-22T10:08:23.809Z,46.25
2023-04-22T10:13:15.838Z,44.30
2023-04-22T10:18:10.883Z,43.66
2023-04-22T10:23:05.324Z,43.89
2023-04-22T10:28:09.000Z,44.10
2023-04-22T10:33:27.759Z,44.36
2023-04-22T10:38:19.575Z,44.67
2023-04-22T10:43:12.873Z,44.30
2023-04-22T10:48:05.113Z,44.60
2023-04-22T10:53:03.185Z,43.54
2023-04-22T10:57:54.801Z,45.73
2023-04-22T11:02:51.219Z,44.92
2023-04-22T11:07:43.081Z,46.01
2023-04-22T11:12:42.169Z,46.60
2023-04-22T11:17:34.905Z,48.47
2023-04-22T11:22:26.924Z,47.81
2023-04-22T11:27:25.751Z,47.97
2023-04-22T11:32:17.378Z,48.60
2023-04-22T11:37:09.096Z,48.25
2023-04-22T11:42:00.981Z,49.25
2023-04-22T11:46:52.561Z,48.90
2023-04-22T11:51:55.373Z,47.18
2023-04-22T11:56:49.000Z,45.52
2023-04-22T12:01:42.202Z,46.36
2023-04-22T12:06:33.844Z,45.28
2023-04-22T12:11:25.493Z,46.24
2023-04-22T12:16:20.663Z,45.78
2023-04-22T12:21:14.198Z,45.79
2023-04-22T12:26:05.844Z,45.82
2023-04-22T12:30:57.492Z,43.78
2023-04-22T12:35:52.535Z,43.54
2023-04-22T12:40:44.286Z,43.31
2023-04-22T12:45:36.019Z,42.21
2023-04-22T12:50:27.742Z,43.21
2023-04-22T12:55:20.931Z,43.60
2023-04-22T13:00:16.267Z,44.04
2023-04-22T13:05:08.809Z,43.52
2023-04-22T13:10:00.609Z,44.59
2023-04-22T13:14:52.224Z,43.90
2023-04-22T13:19:44.051Z,45.63
2023-04-22T13:24:35.721Z,45.09
2023-04-22T13:29:27.376Z,45.05
2023-04-22T13:34:19.015Z,43.87
2023-04-22T13:39:11.513Z,43.46
2023-04-22T13:44:04.514Z,43.77
2023-04-22T13:48:56.771Z,43.23
2023-04-22T13:53:48.689Z,43.99
2023-04-22T13:58:41.127Z,44.55
2023-04-22T14:03:33.026Z,46.39
2023-04-22T14:08:24.729Z,46.01
2023-04-22T14:13:16.411Z,46.50
2023-04-22T14:18:08.314Z,47.57
2023-04-22T14:23:00.997Z,47.33
2023-04-22T14:27:52.585Z,47.47
2023-04-22T14:32:44.425Z,47.59
2023-04-22T14:37:36.290Z,47.99
2023-04-22T14:42:28.230Z,49.00
2023-04-22T14:47:19.865Z,48.27
2023-04-22T14:52:11.690Z,48.04
2023-04-22T14:57:04.182Z,46.91
2023-04-22T15:01:57.008Z,46.17
2023-04-22T15:06:48.772Z,45.52
2023-04-22T15:11:41.053Z,45.09
2023-04-22T15:16:32.748Z,43.79
2023-04-22T15:21:24.404Z,46.27
2023-04-22T15:26:16.521Z,45.23
2023-04-22T15:31:08.139Z,46.10
2023-04-22T15:35:59.783Z,45.14
2023-04-22T15:40:51.407Z,46.35
2023-04-22T15:45:43.202Z,45.04
2023-04-22T15:50:34.946Z,45.31
2023-04-22T15:55:26.610Z,46.99
2023-04-22T16:00:19.462Z,45.75
2023-04-22T16:05:11.915Z,45.64
2023-04-22T16:10:04.423Z,46.75
2023-04-22T16:14:56.133Z,44.79
2023-04-22T16:19:47.855Z,46.02
2023-04-22T16:24:40.551Z,46.62
2023-04-22T16:29:33.379Z,46.33
2023-04-22T16:34:24.966Z,45.84
2023-04-22T16:39:17.044Z,47.04
2023-04-22T16:44:09.536Z,47.19
2023-04-22T16:49:01.379Z,47.13
2023-04-22T16:53:53.039Z,47.45
2023-04-22T16:58:44.759Z,47.62
2023-04-22T17:03:36.624Z,47.63
2023-04-22T17:08:29.051Z,47.37
2023-04-22T17:13:20.928Z,47.14
2023-04-22T17:18:14.319Z,46.36
2023-04-22T17:23:06.114Z,45.90
2023-04-22T17:27:57.851Z,44.34
2023-04-22T17:32:49.843Z,44.34
2023-04-22T17:37:41.529Z,45.61
2023-04-22T17:42:44.665Z,46.13
2023-04-22T17:47:37.725Z,46.72
2023-04-22T17:52:29.550Z,47.44
2023-04-22T17:57:21.189Z,48.26
2023-04-22T18:02:13.140Z,48.54
2023-04-22T18:07:04.861Z,49.61
2023-04-22T18:11:59.156Z,50.27
2023-04-22T18:16:50.904Z,50.85
2023-04-22T18:21:56.914Z,51.33
2023-04-22T18:26:52.784Z,51.90
2023-04-22T18:31:44.633Z,52.54
2023-04-22T18:36:36.282Z,52.66
2023-04-22T18:41:27.898Z,53.48
2023-04-22T18:46:19.558Z,53.67
2023-04-22T18:51:11.379Z,53.47
2023-04-22T18:56:03.064Z,54.16
2023-04-22T19:00:54.682Z,54.19
2023-04-22T19:05:46.501Z,53.46
2023-04-22T19:10:38.359Z,54.30
2023-04-22T19:15:30.018Z,54.71
2023-04-22T19:20:21.752Z,54.84
2023-04-22T19:25:13.409Z,56.03
2023-04-22T19:30:06.874Z,56.49
2023-04-22T19:34:58.557Z,58.18
2023-04-22T19:39:50.222Z,58.77
2023-04-22T19:44:46.605Z,59.69
2023-04-22T19:49:39.026Z,61.77
2023-04-22T19:54:31.882Z,64.22
2023-04-22T19:59:23.945Z,65.17
2023-04-22T20:04:16.060Z,66.25
2023-04-22T20:09:10.429Z,67.03
2023-04-22T20:14:03.236Z,68.04
2023-04-22T20:18:55.376Z,67.88
2023-04-22T20:23:48.340Z,69.72
2023-04-22T20:28:48.232Z,72.38
2023-04-22T20:33:40.361Z,73.58
2023-04-22T20:38:36.912Z,76.11
2023-04-22T20:43:28.563Z,75.74
2023-04-22T20:48:20.287Z,77.04
2023-04-22T20:53:12.565Z,75.76
2023-04-22T20:58:04.251Z,76.79
2023-04-22T21:02:56.345Z,77.11
2023-04-22T21:07:52.443Z,77.22
2023-04-22T21:12:44.501Z,77.72
2023-04-22T21:17:40.818Z,78.83
2023-04-22T21:22:33.014Z,80.17
2023-04-22T21:27:24.939Z,80.56
2023-04-22T21:32:17.150Z,80.39
2023-04-22T21:37:09.443Z,80.65
2023-04-22T21:42:02.546Z,81.29
2023-04-22T21:46:54.291Z,82.12
2023-04-22T21:51:46.082Z,81.77
2023-04-22T21:56:37.864Z,81.33
2023-04-22T22:01:29.429Z,81.54
2023-04-22T22:06:21.171Z,80.68
2023-04-22T22:11:23.960Z,81.96
2023-04-22T22:16:21.812Z,82.59
2023-04-22T22:21:13.425Z,82.17
2023-04-22T22:26:05.134Z,83.46
2023-04-22T22:31:02.347Z,84.26
2023-04-22T22:35:54.199Z,86.08
2023-04-22T22:40:45.794Z,85.43
2023-04-22T22:45:37.414Z,86.42
2023-04-22T22:50:29.077Z,85.96
2023-04-22T22:55:20.906Z,86.78
2023-04-22T23:00:13.782Z,87.39
2023-04-22T23:05:10.569Z,87.53
2023-04-22T23:10:02.608Z,88.40
2023-04-22T23:14:54.291Z,88.29
2023-04-22T23:19:46.411Z,88.95
2023-04-22T23:24:39.109Z,89.05
2023-04-22T23:29:31.557Z,89.39
2023-04-22T23:34:24.085Z,89.41
2023-04-22T23:39:15.792Z,89.67
2023-04-22T23:44:07.440Z,89.30
2023-04-22T23:48:59.515Z,90.17
2023-04-22T23:53:51.073Z,90.86
2023-04-22T23:58:42.925Z,90.96
